Time;durP1;ratioP1;P1;durP2;ratioP2;P2;SDS_P1;SDS_P2;PMS_P1;PMS_P2;Temp;Humidity;BMP_temperature;BMP_pressure;BME280_temperature;BME280_humidity;BME280_pressure;Samples;Min_cycle;Max_cycle;Signal;HPM_P1;HPM_P2
2021/05/25 00:01:42;;;;;;;2.30;1.15;;;23.70;37.30;;;;;;5091560;28;20578;-62
2021/05/25 00:04:08;;;;;;;1.25;1.10;;;23.80;37.30;;;;;;5090948;28;20350;-61
2021/05/25 00:06:34;;;;;;;1.63;1.10;;;23.80;37.30;;;;;;5091894;28;20223;-62
2021/05/25 00:09:00;;;;;;;2.78;2.00;;;23.70;37.10;;;;;;5091663;28;20212;-62
2021/05/25 00:11:26;;;;;;;1.38;1.10;;;23.80;37.10;;;;;;5075881;28;20270;-62
2021/05/25 00:13:53;;;;;;;0.90;0.90;;;23.70;37.00;;;;;;5086968;28;20618;-61
2021/05/25 00:16:19;;;;;;;1.77;1.10;;;23.70;37.10;;;;;;5091022;28;20203;-62
2021/05/25 00:18:45;;;;;;;2.17;1.15;;;23.70;37.00;;;;;;5090179;28;20200;-62
2021/05/25 00:21:11;;;;;;;1.65;1.00;;;23.70;36.90;;;;;;5092099;28;20227;-61
2021/05/25 00:23:37;;;;;;;1.90;1.20;;;23.70;36.90;;;;;;5090231;28;20224;-61
2021/05/25 00:26:03;;;;;;;2.47;1.00;;;23.70;36.90;;;;;;5090691;28;20200;-63
2021/05/25 00:28:29;;;;;;;1.50;1.02;;;23.80;36.90;;;;;;5091110;28;20250;-60
2021/05/25 00:30:55;;;;;;;1.30;0.90;;;23.70;36.70;;;;;;5090596;28;20232;-61
2021/05/25 00:33:21;;;;;;;1.38;0.98;;;23.70;36.80;;;;;;5091649;28;20756;-61
2021/05/25 00:35:47;;;;;;;1.15;1.00;;;23.80;36.80;;;;;;5090860;28;20208;-64
2021/05/25 00:38:13;;;;;;;2.75;1.10;;;23.80;37.00;;;;;;5092317;28;20205;-61
2021/05/25 00:40:39;;;;;;;1.55;1.05;;;23.70;36.80;;;;;;5090477;28;20201;-62
2021/05/25 00:43:05;;;;;;;1.35;1.00;;;23.70;36.90;;;;;;5088716;28;20235;-61
2021/05/25 00:45:31;;;;;;;1.55;1.33;;;23.70;36.90;;;;;;5089421;28;20220;-61
2021/05/25 00:47:57;;;;;;;2.13;1.13;;;23.70;37.00;;;;;;5090767;28;20225;-61
2021/05/25 00:50:23;;;;;;;0.93;0.82;;;23.70;37.10;;;;;;5091468;28;20228;-61
2021/05/25 00:52:49;;;;;;;1.02;1.00;;;23.70;37.20;;;;;;5090463;28;20221;-62
2021/05/25 00:55:15;;;;;;;1.33;1.00;;;23.70;37.10;;;;;;5087542;28;20714;-62
2021/05/25 00:57:41;;;;;;;0.90;0.90;;;23.70;37.00;;;;;;5090200;28;20201;-62
2021/05/25 01:00:07;;;;;;;1.27;0.90;;;23.70;37.00;;;;;;5087924;28;20254;-62
2021/05/25 01:02:33;;;;;;;1.60;1.45;;;23.70;37.00;;;;;;5091290;28;20682;-62
2021/05/25 01:04:59;;;;;;;0.90;0.90;;;23.70;37.30;;;;;;5090103;28;20212;-61
2021/05/25 01:07:25;;;;;;;1.88;1.23;;;23.70;37.30;;;;;;5088791;28;20253;-60
2021/05/25 01:09:52;;;;;;;1.33;1.05;;;23.70;37.20;;;;;;5089818;28;20201;-62
2021/05/25 01:12:18;;;;;;;1.10;1.00;;;23.70;37.20;;;;;;5090555;28;20724;-62
2021/05/25 01:14:50;;;;;;;1.23;0.90;;;23.70;37.30;;;;;;5089634;28;20196;-62
2021/05/25 01:17:16;;;;;;;1.13;1.00;;;23.70;37.30;;;;;;5088201;28;20235;-62
2021/05/25 01:19:42;;;;;;;1.10;1.00;;;23.70;37.20;;;;;;5090813;28;20200;-62
2021/05/25 01:22:08;;;;;;;1.15;1.00;;;23.70;37.10;;;;;;5091253;28;20196;-61
2021/05/25 01:24:34;;;;;;;2.13;1.00;;;23.70;37.20;;;;;;5089383;28;20294;-62
2021/05/25 01:27:00;;;;;;;1.88;0.93;;;23.70;37.10;;;;;;5098624;28;20661;-62
2021/05/25 01:29:26;;;;;;;1.30;1.15;;;23.70;37.20;;;;;;5090455;28;20257;-62
2021/05/25 01:31:52;;;;;;;1.83;1.10;;;23.70;37.10;;;;;;5088873;28;20300;-62
2021/05/25 01:34:18;;;;;;;1.38;0.95;;;23.70;37.10;;;;;;5090272;28;20212;-62
2021/05/25 01:36:44;;;;;;;1.60;1.25;;;23.70;37.00;;;;;;5089651;28;20200;-62
2021/05/25 01:39:10;;;;;;;1.05;0.98;;;23.70;36.90;;;;;;5089529;28;20200;-62
2021/05/25 01:41:36;;;;;;;1.08;0.98;;;23.70;36.90;;;;;;5089166;28;20211;-61
2021/05/25 01:44:02;;;;;;;0.90;0.90;;;23.70;36.80;;;;;;5089940;28;20771;-61
2021/05/25 01:46:28;;;;;;;1.05;0.95;;;23.70;36.80;;;;;;5090487;28;20196;-62
2021/05/25 01:48:54;;;;;;;1.65;1.10;;;23.70;36.90;;;;;;5094360;28;20275;-61
2021/05/25 01:51:20;;;;;;;1.20;1.00;;;23.70;36.90;;;;;;5090061;28;20226;-61
2021/05/25 01:53:46;;;;;;;2.42;1.00;;;23.70;36.80;;;;;;5087298;28;20228;-61
2021/05/25 01:56:12;;;;;;;1.20;1.10;;;23.70;36.80;;;;;;5087202;28;20201;-62
2021/05/25 01:58:38;;;;;;;2.17;1.10;;;23.70;36.80;;;;;;5083648;28;20254;-61
2021/05/25 02:01:04;;;;;;;2.13;1.38;;;23.70;36.80;;;;;;5088444;28;20196;-62
2021/05/25 02:03:30;;;;;;;1.55;1.00;;;23.70;36.90;;;;;;5089778;28;20704;-61
2021/05/25 02:05:57;;;;;;;1.35;1.25;;;23.70;36.80;;;;;;5088064;28;20196;-61
2021/05/25 02:08:23;;;;;;;1.00;1.00;;;23.70;36.90;;;;;;5089047;28;20831;-62
2021/05/25 02:10:49;;;;;;;0.90;0.90;;;23.70;36.90;;;;;;5090534;28;20263;-61
2021/05/25 02:13:15;;;;;;;1.00;1.00;;;23.70;36.90;;;;;;5084721;28;20216;-61
2021/05/25 02:15:41;;;;;;;1.48;1.00;;;23.70;36.90;;;;;;5087948;28;20648;-61
2021/05/25 02:18:07;;;;;;;1.05;0.90;;;23.70;36.90;;;;;;5088862;28;20250;-63
2021/05/25 02:20:33;;;;;;;1.52;1.05;;;23.70;36.90;;;;;;5088203;28;20204;-62
2021/05/25 02:22:59;;;;;;;1.00;1.00;;;23.70;37.00;;;;;;5088994;28;20753;-62
2021/05/25 02:25:25;;;;;;;1.40;1.00;;;23.70;37.00;;;;;;5089086;28;20204;-62
2021/05/25 02:27:51;;;;;;;2.92;1.10;;;23.70;37.00;;;;;;5089154;28;20212;-62
2021/05/25 02:30:17;;;;;;;2.55;1.02;;;23.70;37.10;;;;;;5090181;28;20221;-62
2021/05/25 02:32:43;;;;;;;0.80;0.80;;;23.70;37.20;;;;;;5088201;28;20277;-64
2021/05/25 02:35:09;;;;;;;1.67;1.20;;;23.70;37.20;;;;;;5089858;28;20204;-62
2021/05/25 02:37:35;;;;;;;2.17;1.20;;;23.70;38.20;;;;;;5089322;28;20201;-61
2021/05/25 02:40:00;;;;;;;1.40;1.20;;;23.70;37.80;;;;;;5089144;28;20509;-62
2021/05/25 02:42:26;;;;;;;2.75;1.02;;;23.70;37.80;;;;;;5088971;28;20328;-63
2021/05/25 02:44:52;;;;;;;1.23;0.80;;;23.70;37.80;;;;;;5089195;28;20197;-62
2021/05/25 02:47:18;;;;;;;0.82;0.80;;;23.70;37.70;;;;;;5088371;28;20729;-62
2021/05/25 02:49:44;;;;;;;0.80;0.80;;;23.70;37.50;;;;;;5089388;28;20201;-62
2021/05/25 02:52:10;;;;;;;0.88;0.88;;;23.70;37.50;;;;;;5088734;28;20229;-61
2021/05/25 02:54:36;;;;;;;0.90;0.90;;;23.70;37.40;;;;;;5086211;28;20586;-62
2021/05/25 02:57:02;;;;;;;1.30;0.90;;;23.70;37.40;;;;;;5087809;28;20322;-62
2021/05/25 02:59:28;;;;;;;1.92;1.00;;;23.70;37.60;;;;;;5087842;28;20200;-62
2021/05/25 03:01:54;;;;;;;0.80;0.80;;;23.70;37.30;;;;;;5088639;28;20193;-63
2021/05/25 03:04:20;;;;;;;1.48;1.08;;;23.70;37.40;;;;;;5088510;28;20220;-62
2021/05/25 03:06:46;;;;;;;1.10;1.00;;;23.60;37.30;;;;;;5089184;28;20212;-62
2021/05/25 03:09:12;;;;;;;0.90;0.90;;;23.70;37.40;;;;;;5088496;28;20192;-62
2021/05/25 03:11:38;;;;;;;1.02;0.90;;;23.70;37.40;;;;;;5089480;28;20229;-62
2021/05/25 03:14:04;;;;;;;1.35;1.10;;;23.70;37.50;;;;;;5087870;28;20876;-63
2021/05/25 03:16:30;;;;;;;1.50;1.10;;;23.70;37.40;;;;;;5088497;28;20197;-62
2021/05/25 03:18:56;;;;;;;1.23;1.05;;;23.70;37.30;;;;;;5092428;28;20256;-62
2021/05/25 03:21:22;;;;;;;1.98;1.02;;;23.70;37.30;;;;;;5093122;28;20636;-61
2021/05/25 03:23:48;;;;;;;1.27;1.10;;;23.70;37.30;;;;;;5086252;28;20216;-62
2021/05/25 03:26:14;;;;;;;1.00;1.00;;;23.70;37.30;;;;;;5093143;28;20533;-61
2021/05/25 03:28:40;;;;;;;0.73;0.73;;;23.70;37.20;;;;;;5092524;28;20208;-61
2021/05/25 03:31:06;;;;;;;1.00;0.90;;;23.70;37.10;;;;;;5092600;28;20455;-61
2021/05/25 03:33:32;;;;;;;1.10;1.00;;;23.70;37.70;;;;;;5091770;28;20225;-62
2021/05/25 03:35:58;;;;;;;1.42;0.93;;;23.70;37.00;;;;;;5091458;28;20197;-61
2021/05/25 03:38:24;;;;;;;1.08;0.90;;;23.70;37.00;;;;;;5091614;28;20558;-62
2021/05/25 03:40:50;;;;;;;1.08;0.98;;;23.70;37.00;;;;;;5092342;28;20196;-61
2021/05/25 03:43:16;;;;;;;1.05;0.80;;;23.70;37.00;;;;;;5092570;28;20219;-61
2021/05/25 03:45:42;;;;;;;2.33;1.10;;;23.70;37.00;;;;;;5091827;28;20205;-62
2021/05/25 03:48:08;;;;;;;0.90;0.90;;;23.70;36.90;;;;;;5089443;28;20204;-62
2021/05/25 03:50:34;;;;;;;1.35;1.00;;;23.70;36.90;;;;;;5091720;28;20290;-61
2021/05/25 03:53:00;;;;;;;1.48;0.90;;;23.70;36.90;;;;;;5092365;28;20213;-61
2021/05/25 03:55:33;;;;;;;1.20;1.00;;;23.70;36.90;;;;;;5092619;28;20209;-62
2021/05/25 04:00:43;;;;;;;1.00;0.90;;;23.70;36.90;;;;;;5090867;28;20199;-62
2021/05/25 04:03:09;;;;;;;1.20;1.00;;;23.70;36.90;;;;;;5091766;28;20220;-61
2021/05/25 04:05:35;;;;;;;1.17;0.80;;;23.70;36.90;;;;;;5092399;28;20209;-61
2021/05/25 04:08:01;;;;;;;1.00;0.90;;;23.70;36.90;;;;;;5090723;28;20574;-61
2021/05/25 04:10:27;;;;;;;1.75;0.80;;;23.60;36.80;;;;;;5092453;28;20220;-62
2021/05/25 04:12:53;;;;;;;0.82;0.80;;;23.70;37.00;;;;;;5091131;28;20228;-62
2021/05/25 04:15:20;;;;;;;1.10;1.00;;;23.70;36.90;;;;;;5085346;28;20642;-61
2021/05/25 04:17:46;;;;;;;1.00;1.00;;;23.70;37.00;;;;;;5090470;28;20228;-62
2021/05/25 04:20:12;;;;;;;1.10;0.90;;;23.60;36.90;;;;;;5091437;28;20564;-61
2021/05/25 04:22:38;;;;;;;1.80;1.17;;;23.70;36.90;;;;;;5091893;28;20278;-61
2021/05/25 04:25:04;;;;;;;0.95;0.90;;;23.60;36.80;;;;;;5091240;28;20201;-61
2021/05/25 04:27:30;;;;;;;0.90;0.90;;;23.70;36.90;;;;;;5090052;28;20529;-62
2021/05/25 04:29:56;;;;;;;1.25;0.98;;;23.70;37.00;;;;;;5090814;28;20196;-61
2021/05/25 04:32:22;;;;;;;0.88;0.88;;;23.70;36.90;;;;;;5091082;28;20224;-61
2021/05/25 04:34:48;;;;;;;1.25;0.80;;;23.70;36.90;;;;;;5091528;28;20204;-62
2021/05/25 04:37:14;;;;;;;0.90;0.90;;;23.60;36.90;;;;;;5090300;28;20250;-61
2021/05/25 04:39:39;;;;;;;1.02;0.80;;;23.70;36.90;;;;;;5089575;28;20562;-61
2021/05/25 04:42:05;;;;;;;1.27;0.90;;;23.70;36.80;;;;;;5092521;28;20228;-62
2021/05/25 04:44:31;;;;;;;2.60;0.80;;;23.70;36.90;;;;;;5090370;28;20200;-61
2021/05/25 04:46:57;;;;;;;2.67;1.23;;;23.70;36.90;;;;;;5091617;28;20204;-61
2021/05/25 04:49:23;;;;;;;1.15;0.90;;;23.70;36.80;;;;;;5090869;28;20212;-61
2021/05/25 04:51:49;;;;;;;0.90;0.90;;;23.70;36.90;;;;;;5090525;28;20231;-61
2021/05/25 04:54:15;;;;;;;1.25;0.95;;;23.70;36.80;;;;;;5090174;28;20204;-61
2021/05/25 04:56:41;;;;;;;0.93;0.93;;;23.70;36.90;;;;;;5086954;28;20201;-61
2021/05/25 04:59:08;;;;;;;1.13;0.98;;;23.70;36.80;;;;;;5096952;28;20212;-61
2021/05/25 05:01:34;;;;;;;1.17;0.93;;;23.70;36.80;;;;;;5089503;28;20258;-62
2021/05/25 05:04:00;;;;;;;0.80;0.80;;;23.70;36.90;;;;;;5090767;28;20200;-61
2021/05/25 05:06:26;;;;;;;1.00;0.90;;;23.70;36.80;;;;;;5089167;28;20660;-61
2021/05/25 05:08:52;;;;;;;1.35;0.80;;;23.60;36.80;;;;;;5090313;28;20270;-61
2021/05/25 05:11:18;;;;;;;2.53;0.90;;;23.70;36.80;;;;;;5089246;28;20224;-62
2021/05/25 05:13:44;;;;;;;1.73;0.75;;;23.70;36.80;;;;;;5089539;28;20309;-61
2021/05/25 05:16:10;;;;;;;0.70;0.70;;;23.70;36.80;;;;;;5090820;28;20193;-60
2021/05/25 05:18:36;;;;;;;1.08;0.80;;;23.70;36.80;;;;;;5089018;28;20664;-61
2021/05/25 05:21:02;;;;;;;1.13;0.98;;;23.70;36.80;;;;;;5089385;28;20228;-61
2021/05/25 05:23:28;;;;;;;0.85;0.80;;;23.70;36.80;;;;;;5090178;28;20235;-61
2021/05/25 05:25:54;;;;;;;1.05;0.90;;;23.70;36.80;;;;;;5089633;28;20200;-61
2021/05/25 05:28:20;;;;;;;0.90;0.90;;;23.70;36.80;;;;;;5088856;28;20192;-61
2021/05/25 05:30:46;;;;;;;0.82;0.80;;;23.70;36.80;;;;;;5090821;28;20244;-61
2021/05/25 05:33:12;;;;;;;1.17;1.08;;;23.70;36.80;;;;;;5089849;28;20268;-60
2021/05/25 05:35:38;;;;;;;0.80;0.80;;;23.70;36.80;;;;;;5091087;28;20679;-61
2021/05/25 05:38:05;;;;;;;0.80;0.80;;;23.70;36.80;;;;;;5090126;28;20200;-60
2021/05/25 05:40:31;;;;;;;1.10;1.00;;;23.70;36.80;;;;;;5070365;28;20511;-61
2021/05/25 05:42:57;;;;;;;0.88;0.88;;;23.70;36.80;;;;;;5084491;28;20269;-60
2021/05/25 05:45:23;;;;;;;1.08;0.98;;;23.70;36.80;;;;;;5090407;28;20284;-61
2021/05/25 05:47:49;;;;;;;1.20;1.10;;;23.70;36.80;;;;;;5089472;28;20344;-61
2021/05/25 05:50:15;;;;;;;1.23;1.10;;;23.70;36.80;;;;;;5090567;28;20754;-61
2021/05/25 05:52:41;;;;;;;0.73;0.73;;;23.70;36.80;;;;;;5088915;28;20220;-62
2021/05/25 05:55:07;;;;;;;1.17;1.00;;;23.70;36.80;;;;;;5090397;28;20274;-62
2021/05/25 05:57:33;;;;;;;0.90;0.90;;;23.70;36.80;;;;;;5088142;28;20570;-62
2021/05/25 05:59:59;;;;;;;0.70;0.70;;;23.70;36.80;;;;;;5090960;28;20203;-61
2021/05/25 06:02:25;;;;;;;0.90;0.90;;;23.70;36.80;;;;;;5088808;28;20235;-61
2021/05/25 06:04:51;;;;;;;0.80;0.80;;;23.70;36.80;;;;;;5088685;28;20208;-62
2021/05/25 06:07:17;;;;;;;1.00;0.90;;;23.70;36.80;;;;;;5088448;28;20249;-62
2021/05/25 06:09:43;;;;;;;1.73;0.90;;;23.70;36.70;;;;;;5089486;28;20693;-62
2021/05/25 06:12:09;;;;;;;0.82;0.82;;;23.70;36.70;;;;;;5088997;28;20239;-61
2021/05/25 06:14:35;;;;;;;0.95;0.90;;;23.70;36.70;;;;;;5089007;28;20219;-61
2021/05/25 06:17:02;;;;;;;0.80;0.80;;;23.70;36.70;;;;;;5080211;28;20653;-60
2021/05/25 06:19:28;;;;;;;0.82;0.82;;;23.70;36.70;;;;;;5090502;28;20291;-61
2021/05/25 06:21:54;;;;;;;0.80;0.80;;;23.70;36.70;;;;;;5089151;28;20611;-61
2021/05/25 06:24:19;;;;;;;0.70;0.70;;;23.70;36.70;;;;;;5069791;28;20231;-61
2021/05/25 06:26:45;;;;;;;1.40;1.20;;;23.70;36.70;;;;;;5080693;28;20197;-62
2021/05/25 06:29:11;;;;;;;1.00;0.80;;;23.70;36.70;;;;;;5088192;28;20196;-61
2021/05/25 06:31:37;;;;;;;0.93;0.93;;;23.70;36.70;;;;;;5087532;28;20239;-61
2021/05/25 06:34:03;;;;;;;1.00;0.90;;;23.70;36.70;;;;;;5088198;28;20675;-61
2021/05/25 06:36:29;;;;;;;0.82;0.82;;;23.70;36.70;;;;;;5079373;28;20200;-61
2021/05/25 06:38:55;;;;;;;0.80;0.80;;;23.70;36.70;;;;;;5083222;28;20240;-61
2021/05/25 06:41:21;;;;;;;2.55;1.10;;;23.70;36.60;;;;;;5078917;28;20216;-60
2021/05/25 06:43:47;;;;;;;0.80;0.80;;;23.70;36.70;;;;;;5087943;28;20193;-61
2021/05/25 06:46:13;;;;;;;0.80;0.80;;;23.70;36.70;;;;;;5082391;28;20197;-62
2021/05/25 06:48:39;;;;;;;0.77;0.77;;;23.70;37.30;;;;;;5080708;28;20573;-62
2021/05/25 06:51:07;;;;;;;1.65;1.08;;;23.70;37.60;;;;;;5086942;28;20317;-62
2021/05/25 06:53:33;;;;;;;1.40;0.80;;;23.70;37.80;;;;;;5090150;28;20220;-61
2021/05/25 06:55:59;;;;;;;1.02;0.80;;;23.70;37.80;;;;;;5092294;28;20223;-60
2021/05/25 06:58:25;;;;;;;2.25;0.95;;;23.70;37.90;;;;;;5088759;28;20284;-59
2021/05/25 07:00:51;;;;;;;3.13;1.10;;;23.70;38.80;;;;;;5090343;28;20252;-60
2021/05/25 07:03:17;;;;;;;1.52;0.90;;;23.70;38.70;;;;;;5088038;28;20226;-60
2021/05/25 07:05:43;;;;;;;2.85;1.02;;;23.70;38.40;;;;;;5093886;28;20219;-60
2021/05/25 07:08:09;;;;;;;2.65;1.08;;;23.70;38.40;;;;;;5088739;28;20208;-60
2021/05/25 07:10:35;;;;;;;1.70;1.20;;;23.70;38.60;;;;;;5090919;28;20599;-60
2021/05/25 07:13:01;;;;;;;2.83;1.17;;;23.70;38.50;;;;;;5092038;28;20223;-60
2021/05/25 07:15:27;;;;;;;1.75;0.90;;;23.70;38.40;;;;;;5091273;28;20295;-64
2021/05/25 07:17:56;;;;;;;2.40;0.90;;;23.70;38.20;;;;;;5086029;28;20718;-59
2021/05/25 07:20:22;;;;;;;2.15;1.42;;;23.80;38.40;;;;;;5088069;28;20568;-59
2021/05/25 07:22:51;;;;;;;1.52;0.90;;;23.80;38.90;;;;;;5087939;28;20723;-61
2021/05/25 07:25:17;;;;;;;1.42;1.05;;;23.80;39.50;;;;;;5087471;28;20200;-62
2021/05/25 07:27:43;;;;;;;2.72;0.93;;;23.80;38.90;;;;;;5088361;28;20208;-63
2021/05/25 07:30:09;;;;;;;4.03;1.38;;;23.40;31.60;;;;;;5090443;28;20201;-64
2021/05/25 07:32:35;;;;;;;2.42;1.30;;;22.90;30.00;;;;;;5085840;28;20625;-63
2021/05/25 07:35:01;;;;;;;1.95;1.27;;;22.30;28.50;;;;;;5095646;28;20205;-65
2021/05/25 07:37:27;;;;;;;4.63;1.33;;;22.00;29.10;;;;;;5092139;28;20265;-68
2021/05/25 07:39:53;;;;;;;1.90;1.13;;;21.60;28.00;;;;;;5089821;28;20208;-68
2021/05/25 07:42:19;;;;;;;2.13;1.23;;;20.90;26.00;;;;;;5089097;28;20735;-66
2021/05/25 07:44:45;;;;;;;1.05;0.70;;;20.70;26.40;;;;;;5091883;28;20197;-67
2021/05/25 07:47:11;;;;;;;3.50;1.02;;;21.40;27.80;;;;;;5090499;28;20204;-67
2021/05/25 07:49:37;;;;;;;2.13;1.07;;;22.00;27.70;;;;;;5090396;28;20590;-66
2021/05/25 07:52:03;;;;;;;1.13;0.98;;;22.30;27.60;;;;;;5091771;28;20312;-66
2021/05/25 07:54:29;;;;;;;1.20;0.88;;;22.60;28.20;;;;;;5074990;28;20220;-66
2021/05/25 07:56:55;;;;;;;1.27;0.95;;;22.80;28.90;;;;;;5078592;28;20513;-66
2021/05/25 07:59:21;;;;;;;1.13;1.03;;;22.90;29.50;;;;;;5090452;28;20241;-66
2021/05/25 08:01:47;;;;;;;1.75;0.90;;;23.00;29.60;;;;;;5091492;28;20224;-66
2021/05/25 08:04:13;;;;;;;1.42;0.82;;;23.10;30.10;;;;;;5096289;28;20489;-66
2021/05/25 08:06:39;;;;;;;0.80;0.70;;;23.20;30.30;;;;;;5102836;28;20201;-59
2021/05/25 08:09:05;;;;;;;1.60;0.98;;;23.20;30.80;;;;;;5086893;28;20201;-59
2021/05/25 08:11:31;;;;;;;1.83;1.10;;;23.30;31.20;;;;;;5083077;28;20638;-60
2021/05/25 08:13:57;;;;;;;0.90;0.80;;;23.40;31.50;;;;;;5089298;28;20209;-59
2021/05/25 08:16:28;;;;;;;1.08;0.80;;;23.40;31.70;;;;;;5091435;28;20361;-59
2021/05/25 08:19:02;;;;;;;2.13;0.90;;;23.50;32.10;;;;;;5091736;28;20216;-60
2021/05/25 08:21:28;;;;;;;0.80;0.80;;;23.50;32.10;;;;;;5091083;28;20231;-59
2021/05/25 08:23:54;;;;;;;1.00;0.90;;;23.60;32.50;;;;;;5087295;28;20197;-59
2021/05/25 08:26:24;;;;;;;1.10;0.63;;;23.60;32.70;;;;;;5089350;28;20743;-60
2021/05/25 08:28:50;;;;;;;2.58;1.00;;;23.70;32.90;;;;;;5090700;28;20200;-61
2021/05/25 08:31:16;;;;;;;2.25;0.80;;;23.60;32.80;;;;;;5086237;28;20280;-56
2021/05/25 08:33:42;;;;;;;2.85;0.80;;;23.70;32.90;;;;;;5088772;28;20208;-52
2021/05/25 08:36:09;;;;;;;1.45;0.75;;;23.70;32.90;;;;;;5088367;28;20200;-50
2021/05/25 08:38:35;;;;;;;1.70;0.93;;;23.70;33.00;;;;;;5080347;28;20660;-47
2021/05/25 08:41:03;;;;;;;1.23;0.77;;;23.70;33.20;;;;;;5088639;28;20297;-50
2021/05/25 08:43:29;;;;;;;1.23;0.80;;;23.70;33.20;;;;;;5087133;28;20223;-50
2021/05/25 08:45:55;;;;;;;0.88;0.77;;;23.60;33.30;;;;;;5091081;28;20724;-51
2021/05/25 08:48:20;;;;;;;0.73;0.70;;;23.60;33.40;;;;;;5091091;28;20204;-45
2021/05/25 08:50:46;;;;;;;1.15;0.90;;;23.60;33.10;;;;;;5088844;28;20232;-48
2021/05/25 08:53:12;;;;;;;3.58;1.10;;;23.60;33.20;;;;;;5088939;28;20668;-48
2021/05/25 08:55:40;;;;;;;0.75;0.70;;;23.60;33.10;;;;;;5089319;28;20205;-46
2021/05/25 08:58:06;;;;;;;3.53;1.20;;;23.60;33.30;;;;;;5087370;28;20240;-51
2021/05/25 09:00:32;;;;;;;0.77;0.70;;;23.60;33.60;;;;;;5089575;28;20651;-49
2021/05/25 09:02:58;;;;;;;4.47;1.10;;;23.70;34.00;;;;;;5087287;28;20232;-46
2021/05/25 09:05:24;;;;;;;2.40;1.10;;;23.70;34.20;;;;;;5087329;28;20246;-49
2021/05/25 09:07:50;;;;;;;2.15;0.90;;;23.70;34.00;;;;;;5091622;28;20200;-52
2021/05/25 09:10:16;;;;;;;0.80;0.80;;;23.60;33.40;;;;;;5091266;28;20211;-52
2021/05/25 09:12:42;;;;;;;1.67;0.88;;;23.60;33.50;;;;;;5091306;28;20239;-51
2021/05/25 09:15:08;;;;;;;2.90;0.82;;;23.60;33.70;;;;;;5090944;28;20660;-50
2021/05/25 09:17:34;;;;;;;2.42;0.98;;;23.50;33.70;;;;;;5083331;28;20269;-51
2021/05/25 09:20:00;;;;;;;1.02;0.80;;;23.60;33.80;;;;;;5091508;28;20471;-53
2021/05/25 09:22:26;;;;;;;1.85;0.70;;;23.60;33.80;;;;;;5091435;28;20650;-49
2021/05/25 09:24:52;;;;;;;2.55;0.80;;;23.60;33.80;;;;;;5090919;28;20340;-52
2021/05/25 09:27:18;;;;;;;0.80;0.80;;;23.60;33.70;;;;;;5091029;28;20201;-52
2021/05/25 09:29:44;;;;;;;0.98;0.70;;;23.60;33.70;;;;;;5091167;28;20227;-48
2021/05/25 09:32:13;;;;;;;3.20;0.70;;;23.60;33.80;;;;;;5091305;28;20228;-52
2021/05/25 09:34:39;;;;;;;1.00;0.80;;;23.60;33.70;;;;;;5085919;28;20208;-51
2021/05/25 09:37:05;;;;;;;3.28;0.80;;;23.60;33.80;;;;;;5087676;28;20538;-50
2021/05/25 09:39:31;;;;;;;2.83;0.90;;;23.60;33.70;;;;;;5089720;28;20226;-50
2021/05/25 09:41:57;;;;;;;1.92;0.80;;;23.70;34.70;;;;;;5090877;28;20701;-50
2021/05/25 09:44:23;;;;;;;3.40;1.00;;;23.60;33.90;;;;;;5090644;28;20245;-49
2021/05/25 09:46:49;;;;;;;2.22;0.80;;;23.70;34.10;;;;;;5091076;28;20207;-49
2021/05/25 09:49:15;;;;;;;1.05;0.60;;;23.70;34.20;;;;;;5090936;28;20200;-51
2021/05/25 09:51:42;;;;;;;0.68;0.60;;;23.70;34.20;;;;;;5090159;28;20239;-49
2021/05/25 09:54:08;;;;;;;0.98;0.70;;;23.70;34.20;;;;;;5090652;28;20216;-49
2021/05/25 09:56:35;;;;;;;1.17;0.77;;;23.70;34.20;;;;;;5091403;28;20229;-49
2021/05/25 09:59:01;;;;;;;1.13;0.80;;;23.70;34.20;;;;;;5090667;28;20587;-50
2021/05/25 10:01:27;;;;;;;1.48;0.80;;;23.70;34.20;;;;;;5090285;28;20777;-50
2021/05/25 10:03:55;;;;;;;1.20;0.70;;;23.70;34.20;;;;;;5088457;28;20296;-49
2021/05/25 10:06:21;;;;;;;1.70;0.85;;;23.70;34.20;;;;;;5090648;28;20196;-52
2021/05/25 10:08:48;;;;;;;0.70;0.70;;;23.70;34.20;;;;;;5090430;28;20211;-52
2021/05/25 10:11:14;;;;;;;1.17;0.70;;;23.70;34.20;;;;;;5090669;28;20300;-49
2021/05/25 10:13:40;;;;;;;1.10;0.80;;;23.70;34.20;;;;;;5090052;28;20722;-51
2021/05/25 10:16:07;;;;;;;0.85;0.70;;;23.70;34.30;;;;;;5080998;28;20201;-48
2021/05/25 10:18:47;;;;;;;1.35;0.90;;;23.70;34.40;;;;;;5075031;28;20201;-46
2021/05/25 10:21:14;;;;;;;1.00;0.70;;;23.70;34.20;;;;;;5081189;28;20347;-49
2021/05/25 10:23:41;;;;;;;2.00;0.90;;;23.70;33.10;;;;;;5081389;28;20192;-50
2021/05/25 10:26:07;;;;;;;2.50;0.80;;;23.70;32.30;;;;;;5080609;28;20277;-47
2021/05/25 10:28:33;;;;;;;1.23;0.80;;;23.70;32.60;;;;;;5080830;28;20211;-60
2021/05/25 10:31:00;;;;;;;0.88;0.70;;;23.70;32.90;;;;;;5084987;28;20507;-46
2021/05/25 10:33:26;;;;;;;1.02;0.93;;;23.80;34.30;;;;;;5083414;28;20201;-46
2021/05/25 10:35:52;;;;;;;3.67;1.35;;;23.80;34.30;;;;;;5083921;28;20691;-49
2021/05/25 10:38:18;;;;;;;2.92;1.10;;;23.80;35.10;;;;;;5083251;28;20216;-54
2021/05/25 10:40:44;;;;;;;1.85;1.00;;;23.80;35.00;;;;;;5082507;28;20973;-54
2021/05/25 10:43:10;;;;;;;1.23;0.80;;;23.80;34.80;;;;;;5084945;28;20806;-49
2021/05/25 10:45:36;;;;;;;2.10;1.25;;;23.80;34.80;;;;;;5082089;28;20245;-52
2021/05/25 10:48:04;;;;;;;2.95;1.10;;;23.80;35.40;;;;;;5085077;28;20692;-52
2021/05/25 10:50:33;;;;;;;1.88;0.90;;;23.80;35.20;;;;;;5091090;28;20257;-52
2021/05/25 10:52:59;;;;;;;1.17;1.05;;;23.80;35.20;;;;;;5088146;28;20297;-46
2021/05/25 10:55:25;;;;;;;3.90;1.10;;;23.80;35.00;;;;;;5083852;28;20204;-47
2021/05/25 10:57:51;;;;;;;2.55;0.90;;;23.80;35.30;;;;;;5084184;28;20261;-49
2021/05/25 11:00:18;;;;;;;1.67;0.90;;;23.50;32.80;;;;;;5077674;28;20274;-50
2021/05/25 11:02:44;;;;;;;3.25;1.00;;;23.60;32.90;;;;;;5083226;28;20922;-51
2021/05/25 11:05:10;;;;;;;1.60;1.00;;;23.60;32.80;;;;;;5084152;28;20197;-53
2021/05/25 11:07:36;;;;;;;2.47;0.98;;;23.70;33.20;;;;;;5083536;28;20200;-52
2021/05/25 11:10:02;;;;;;;4.15;1.10;;;23.70;34.50;;;;;;5078432;28;20602;-52
2021/05/25 11:12:27;;;;;;;2.85;1.02;;;23.80;34.50;;;;;;5082605;28;20252;-50
2021/05/25 11:14:53;;;;;;;4.15;1.42;;;23.90;34.50;;;;;;5080253;28;20277;-52
2021/05/25 11:17:19;;;;;;;8.85;3.55;;;23.90;34.80;;;;;;5083088;28;20214;-49
2021/05/25 11:19:57;;;;;;;9.30;3.75;;;24.00;35.10;;;;;;5085143;28;20227;-54
2021/05/25 11:22:23;;;;;;;8.90;4.20;;;24.00;35.50;;;;;;5085004;28;20209;-53
2021/05/25 11:24:50;;;;;;;7.85;3.80;;;24.00;35.80;;;;;;5088220;28;20196;-54
2021/05/25 11:27:16;;;;;;;8.77;4.00;;;24.10;36.00;;;;;;5082946;28;20796;-51
2021/05/25 11:29:42;;;;;;;15.48;5.22;;;24.10;35.90;;;;;;5083182;28;20665;-53
2021/05/25 11:32:08;;;;;;;10.55;5.00;;;24.10;36.10;;;;;;5081680;28;20700;-52
2021/05/25 11:34:34;;;;;;;13.60;5.22;;;24.10;36.20;;;;;;5081493;28;20196;-48
2021/05/25 11:37:00;;;;;;;11.25;5.45;;;24.10;36.30;;;;;;5078976;28;20206;-54
2021/05/25 11:39:26;;;;;;;11.45;5.57;;;24.20;36.50;;;;;;5081219;28;20673;-51
2021/05/25 11:41:52;;;;;;;10.73;5.30;;;24.20;36.60;;;;;;5091583;28;20234;-51
2021/05/25 11:44:21;;;;;;;11.32;5.53;;;24.20;36.90;;;;;;5089975;28;20291;-49
2021/05/25 11:46:47;;;;;;;14.20;6.22;;;24.20;36.80;;;;;;5087971;28;20720;-49
2021/05/25 11:49:13;;;;;;;15.40;6.82;;;24.20;37.00;;;;;;5087216;28;20207;-50
2021/05/25 11:51:39;;;;;;;13.10;6.50;;;24.20;37.00;;;;;;5090759;28;20217;-52
2021/05/25 11:54:05;;;;;;;14.70;7.35;;;24.20;37.00;;;;;;5088967;28;20260;-52
2021/05/25 11:56:31;;;;;;;15.90;7.22;;;24.20;37.10;;;;;;5090888;28;20220;-52
2021/05/25 11:58:57;;;;;;;13.68;7.13;;;24.20;37.50;;;;;;5087080;28;20264;-53
2021/05/25 12:01:23;;;;;;;13.70;7.00;;;24.20;37.50;;;;;;5089074;28;20254;-52
2021/05/25 12:03:49;;;;;;;14.10;7.32;;;24.20;37.80;;;;;;5082734;28;20212;-51
2021/05/25 12:06:15;;;;;;;16.75;8.68;;;24.20;38.30;;;;;;5078076;28;20225;-57
2021/05/25 12:08:41;;;;;;;13.70;7.00;;;24.20;38.30;;;;;;5084743;28;20208;-50
2021/05/25 12:11:09;;;;;;;17.02;7.38;;;24.20;37.70;;;;;;5085546;28;20231;-54
2021/05/25 12:13:35;;;;;;;16.10;8.38;;;24.20;38.30;;;;;;5081937;28;20690;-50
2021/05/25 12:16:01;;;;;;;17.85;8.27;;;24.20;38.30;;;;;;5081403;28;20200;-49
2021/05/25 12:18:27;;;;;;;16.27;8.02;;;24.20;38.80;;;;;;5077512;28;20205;-54
2021/05/25 12:20:53;;;;;;;24.60;8.75;;;24.20;39.30;;;;;;5083470;28;20259;-53
2021/05/25 12:23:19;;;;;;;15.65;7.45;;;24.20;40.20;;;;;;5091315;28;20249;-52
2021/05/25 12:25:49;;;;;;;14.05;7.38;;;24.20;40.60;;;;;;5089090;28;20567;-54
2021/05/25 12:28:15;;;;;;;16.42;7.70;;;24.20;41.80;;;;;;5085395;28;20204;-53
2021/05/25 12:30:43;;;;;;;17.48;6.82;;;24.20;42.10;;;;;;5081981;28;20235;-52
2021/05/25 12:33:09;;;;;;;14.52;6.97;;;24.30;41.90;;;;;;5081262;28;20212;-53
2021/05/25 12:35:37;;;;;;;14.95;6.78;;;24.30;42.00;;;;;;5080828;28;20196;-52
2021/05/25 12:38:03;;;;;;;15.00;7.68;;;24.30;42.00;;;;;;5083605;28;20216;-52
2021/05/25 12:40:29;;;;;;;16.13;7.05;;;24.30;41.60;;;;;;5081766;28;20224;-51
2021/05/25 12:42:55;;;;;;;17.52;7.97;;;24.30;41.70;;;;;;5088790;28;20587;-50